Enter the Airport ICAO Code

Search by Airport or City

Current Weather

MMMM | General Francisco J. Mujica International Airport

Morelia, Michoacán, Mexico

Last Update 1 Hour Ago

Mostly Cloudy Sky

Temperature of 22 ºC

Moderate Winds from South

Temperature

22 ºC

Dew Point Temperature

09 ºC

Relative Humidity

43.63 %

Wind Direction

South (180º, Without Significant Variations)

Wind Velocity

19 km/h (10 kt)

Gusts

None

Visibility

Reduced to 8 Miles

Sea Level Pressure

30.15 inHg (Inches of Mercury)

Layers of Clouds

60% to 90% of Sky Covered with Towering Cumulus from 914 mts (3000 ft) Above Ground Level.

METAR MMMM 022141Z 18010KT 8SM BKN030TCU 22/09 A3015 RMK 8/200 HZY

Weather Forecast

MMMM | General Francisco J. Mujica International Airport

Morelia, Michoacán, Mexico

Forecast valid for the next 25 Hours

From now on it is expected:

Partly Cloudy Sky

Moderate Winds from SouthWest

From now on it is expected 2 hours with intermittent periods of:

Mostly Cloudy Sky

In 3 to 4 hours it is expected the begining of:

Calm Wind

In 10 hours it is expected the begining of:

Mist

In 17 hours it is expected the begining of:

Mostly Cloudy Sky

Moderate Winds from South

Maximum Temperature

No Data

Minimum Temperature

No Data

TAF MMMM 021652Z 0218/0324 23012KT P6SM SCT030 TEMPO 0221/0301 BKN030 BECMG 0302/0303 00000KT FM030900 00000KT 2SM BR OVC010 FM031600 18010KT 4SM HZ BKN020